Portada
METAR-TAF:

METAR-TAF

Aeroports :

Almagro, Espanya

latitud: 38-57-11N, longitud: 3-44-29W, altitud: 629 m

Observació

L'informe es va fer fa 7 hores i 26 minuts, a les 21:00 UTC
Vent 5 kt del Oest/Sud-Oest, variant entre Sud-Oest i Oest/Nord-Oest
Temperatura 10°C
Humitat 87%
Pressió 1013 hPa
Visibilitat 10 km o més
Núvols disperses a una alçada de 3800 ft

METAR: LEAO 182100Z 25005KT 220V290 9999 SCT038 10/08 Q1013

Hora: 06:26 (04:26 UTC)

Pronòstic

L'informe es va fer fa 11 hores i 26 minuts, a les 17:00 UTC
Pronòstic vàlid del 18 a les 18 UTC al 19 a les 03 UTC
Vent 5 kt amb direcció variable
Visibilitat 10 km o més
Escasses núvols a una alçada de 2000 ft
Núvols disperses a una alçada de 3500 ft
Probabilitat 30% :
Temporalment
l' 18 a les 18 UTC al 18 a les 21 UTC
pluja

TAF: LEAO 181700Z 1818/1903 VRB05KT 9999 FEW020 SCT035 PROB30 TEMPO 1818/1821 RA

Observacions i pronòstics meteorològics de més de 4000 aeroports (METAR i TAF).

Les estacions disponibles són els punts grocs i vermells al mapa.

Posi el ratolí al punt desitjat per veure el nom de l'estació.

Feu clic per veure les observacions i els pronòstics meteorològics.

Per canviar el mapa: feu clic els botons verds amb una creu de color negre per apropar; al botó verd amb un guió per allunyar la imatge; o en les fletxes verdes per a mapes adjacents.


METAR-TAF: